Time;durP1;ratioP1;P1;durP2;ratioP2;P2;SDS_P1;SDS_P2;PMS_P1;PMS_P2;Temp;Humidity;BMP_temperature;BMP_pressure;BME280_temperature;BME280_humidity;BME280_pressure;Samples;Min_cycle;Max_cycle;Signal;HPM_P1;HPM_P2
2022/06/04 00:00:08;;;;;;;;;;;;;;;24.28;83.11;99061.75;5026902;28;19927;-43
2022/06/04 00:02:37;;;;;;;;;;;;;;;23.15;86.90;99073.94;5031753;28;20051;-44
2022/06/04 00:05:03;;;;;;;;;;;;;;;23.12;89.39;99073.34;5028867;28;19963;-44
2022/06/04 00:07:28;;;;;;;;;;;;;;;22.94;90.13;99076.50;5016069;28;20011;-44
2022/06/04 00:15:32;;;;;;;;;;;;;;;23.65;87.30;99080.31;5031388;28;19935;-44
2022/06/04 00:17:58;;;;;;;;;;;;;;;22.98;91.16;99077.91;5030065;28;19923;-43
2022/06/04 00:20:23;;;;;;;;;;;;;;;23.08;89.74;99071.91;5034246;28;20282;-43
2022/06/04 00:22:48;;;;;;;;;;;;;;;23.74;86.34;99069.88;5029783;28;19965;-44
2022/06/04 00:25:14;;;;;;;;;;;;;;;24.17;84.76;99063.50;5031693;28;20562;-44
2022/06/04 00:27:39;;;;;;;;;;;;;;;23.52;86.73;99065.59;5012955;28;19932;-44
2022/06/04 00:30:08;;;;;;;;;;;;;;;23.77;86.84;99074.06;5034625;28;20040;-44
2022/06/04 00:32:36;;;;;;;;;;;;;;;23.74;86.76;99064.63;5031893;28;19920;-44
2022/06/04 00:35:02;;;;;;;;;;;;;;;22.72;91.68;99076.59;5011045;28;19983;-44
2022/06/04 00:37:29;;;;;;;;;;;;;;;23.94;85.66;99064.69;5026381;28;20612;-44
2022/06/04 00:39:57;;;;;;;;;;;;;;;23.68;83.97;99065.13;5009500;28;19921;-44
2022/06/04 00:42:22;;;;;;;;;;;;;;;23.71;84.92;99064.84;5032050;28;19928;-44
2022/06/04 00:45:06;;;;;;;;;;;;;;;23.25;84.95;99063.47;5030605;28;19920;-44
2022/06/04 00:47:31;;;;;;;;;;;;;;;23.76;84.81;99061.84;5030505;28;20370;-43
2022/06/04 00:49:56;;;;;;;;;;;;;;;23.76;85.46;99056.59;5031062;28;19921;-44
2022/06/04 00:52:22;;;;;;;;;;;;;;;23.62;84.97;99046.41;5029242;28;19924;-44
2022/06/04 00:54:48;;;;;;;;;;;;;;;23.50;86.57;99051.72;5011851;28;19921;-44
2022/06/04 00:57:21;;;;;;;;;;;;;;;23.54;85.77;99047.88;5035548;28;20455;-45
2022/06/04 00:59:46;;;;;;;;;;;;;;;23.30;88.05;99050.78;5012200;28;19921;-44
2022/06/04 01:02:20;;;;;;;;;;;;;;;23.29;87.40;99037.78;5033067;28;19931;-45
2022/06/04 01:04:57;;;;;;;;;;;;;;;23.55;86.14;99046.09;5031231;28;19921;-44
2022/06/04 01:07:35;;;;;;;;;;;;;;;23.02;87.55;99061.94;5028725;28;20027;-45
2022/06/04 01:10:09;;;;;;;;;;;;;;;22.42;87.83;99062.34;5013620;28;20271;-45
2022/06/04 01:12:37;;;;;;;;;;;;;;;23.14;88.50;99076.66;5031761;28;20575;-45
2022/06/04 01:15:08;;;;;;;;;;;;;;;23.44;86.92;99077.69;5031194;28;19929;-44
2022/06/04 01:17:54;;;;;;;;;;;;;;;23.67;86.04;99078.38;5030400;28;20032;-44
2022/06/04 01:20:19;;;;;;;;;;;;;;;23.76;85.07;99082.88;5032740;28;19956;-44
2022/06/04 01:22:49;;;;;;;;;;;;;;;23.79;84.65;99077.38;5029652;28;19952;-44
2022/06/04 01:25:33;;;;;;;;;;;;;;;23.69;85.01;99087.81;5014771;28;20391;-44
2022/06/04 01:28:00;;;;;;;;;;;;;;;23.12;86.99;99094.34;5030817;28;19959;-44
2022/06/04 01:30:27;;;;;;;;;;;;;;;23.34;85.76;99086.34;5030706;28;20581;-44
2022/06/04 01:33:00;;;;;;;;;;;;;;;23.35;86.12;99085.38;5014765;28;19929;-44
2022/06/04 01:35:29;;;;;;;;;;;;;;;23.23;86.73;99096.94;5032741;28;19931;-44
2022/06/04 01:37:57;;;;;;;;;;;;;;;23.09;87.45;99105.13;5029265;28;21643;-44
2022/06/04 01:43:09;;;;;;;;;;;;;;;22.80;87.18;99103.03;5029481;28;19927;-43
2022/06/04 01:45:34;;;;;;;;;;;;;;;22.16;89.18;99106.34;5013292;28;19975;-43
2022/06/04 01:47:59;;;;;;;;;;;;;;;22.99;87.81;99099.81;5012662;28;20463;-44
2022/06/04 01:50:27;;;;;;;;;;;;;;;23.16;86.16;99101.03;5009314;28;19955;-43
2022/06/04 01:52:52;;;;;;;;;;;;;;;22.68;86.92;99109.28;5014630;28;19928;-44
2022/06/04 01:55:25;;;;;;;;;;;;;;;22.94;87.20;99112.41;5028572;28;19925;-44
2022/06/04 01:57:55;;;;;;;;;;;;;;;23.01;87.69;99118.03;5010694;28;20017;-44
2022/06/04 02:00:25;;;;;;;;;;;;;;;22.56;88.14;99119.00;5015127;28;19928;-44
2022/06/04 02:02:53;;;;;;;;;;;;;;;22.53;88.75;99109.56;5013172;28;19932;-44
2022/06/04 02:05:23;;;;;;;;;;;;;;;22.82;87.57;99116.06;5029783;28;19982;-43
2022/06/04 02:07:49;;;;;;;;;;;;;;;22.63;87.79;99122.78;5009379;28;20390;-44
2022/06/04 02:10:16;;;;;;;;;;;;;;;22.78;87.03;99120.72;5011571;28;19921;-44
2022/06/04 02:12:42;;;;;;;;;;;;;;;22.94;86.01;99117.69;5008136;28;19921;-44
2022/06/04 02:15:08;;;;;;;;;;;;;;;22.63;88.38;99124.59;5034301;28;19924;-44
2022/06/04 02:17:34;;;;;;;;;;;;;;;23.07;85.90;99123.63;5011048;28;19921;-44
2022/06/04 02:19:59;;;;;;;;;;;;;;;23.02;86.02;99119.72;5009924;28;19956;-44
2022/06/04 02:22:24;;;;;;;;;;;;;;;22.81;87.57;99123.09;5026777;28;19921;-44
2022/06/04 02:24:49;;;;;;;;;;;;;;;22.77;88.35;99113.81;5029254;28;19925;-44
2022/06/04 02:27:15;;;;;;;;;;;;;;;22.53;89.59;99114.81;5026188;28;19948;-44
2022/06/04 02:29:40;;;;;;;;;;;;;;;22.55;89.96;99117.31;5010073;28;20023;-44
2022/06/04 02:32:05;;;;;;;;;;;;;;;22.10;91.71;99122.56;5007721;28;19960;-44
2022/06/04 02:34:33;;;;;;;;;;;;;;;22.08;91.84;99116.63;5027619;28;19929;-44
2022/06/04 02:37:08;;;;;;;;;;;;;;;22.19;90.89;99126.25;5011901;28;19921;-44
2022/06/04 02:39:52;;;;;;;;;;;;;;;22.24;90.86;99124.16;5029234;28;19925;-44
2022/06/04 02:42:20;;;;;;;;;;;;;;;22.48;88.23;99124.84;5027167;28;20028;-44
2022/06/04 02:44:47;;;;;;;;;;;;;;;22.30;88.77;99128.91;5014278;28;20434;-44
2022/06/04 02:47:14;;;;;;;;;;;;;;;22.31;88.43;99120.94;5015179;28;19964;-44
2022/06/04 02:49:42;;;;;;;;;;;;;;;22.03;89.52;99135.34;5016128;28;19933;-44
2022/06/04 02:52:09;;;;;;;;;;;;;;;21.83;90.88;99130.78;5033330;28;19921;-44
2022/06/04 02:54:35;;;;;;;;;;;;;;;21.77;90.83;99120.78;5019562;28;20009;-44
2022/06/04 02:57:01;;;;;;;;;;;;;;;21.50;92.69;99125.34;5017451;28;20401;-44
2022/06/04 02:59:26;;;;;;;;;;;;;;;21.74;90.77;99115.78;5015788;28;20014;-44
2022/06/04 03:01:52;;;;;;;;;;;;;;;21.97;88.01;99109.59;5007865;28;20298;-44
2022/06/04 03:04:17;;;;;;;;;;;;;;;21.57;89.56;99117.03;5014044;28;20003;-43
2022/06/04 03:06:42;;;;;;;;;;;;;;;21.44;91.02;99114.50;5027890;28;19944;-44
2022/06/04 03:09:09;;;;;;;;;;;;;;;21.86;89.73;99114.81;5032417;28;20361;-43
2022/06/04 03:11:36;;;;;;;;;;;;;;;21.56;90.34;99107.53;5031119;28;19921;-43
2022/06/04 03:14:01;;;;;;;;;;;;;;;20.96;91.96;99109.28;5013912;28;19931;-43
2022/06/04 03:16:33;;;;;;;;;;;;;;;20.39;96.47;99103.75;5032145;28;19921;-44
2022/06/04 03:18:58;;;;;;;;;;;;;;;19.97;98.92;99099.72;5013729;28;19921;-44
2022/06/04 03:21:23;;;;;;;;;;;;;;;20.21;99.04;99097.19;5030464;28;19967;-44
2022/06/04 03:23:49;;;;;;;;;;;;;;;19.65;100.00;99090.50;5035164;28;20547;-43
2022/06/04 03:26:14;;;;;;;;;;;;;;;19.09;100.00;99097.75;5028670;28;20600;-43
2022/06/04 03:28:39;;;;;;;;;;;;;;;19.78;100.00;99098.38;5033383;28;19920;-43
2022/06/04 03:31:04;;;;;;;;;;;;;;;20.53;100.00;99100.13;5034493;28;19960;-43
2022/06/04 03:33:30;;;;;;;;;;;;;;;20.20;99.80;99111.19;5031498;28;21085;-43
2022/06/04 03:35:55;;;;;;;;;;;;;;;19.79;100.00;99113.09;5033325;28;20286;-44
2022/06/04 03:38:20;;;;;;;;;;;;;;;19.40;100.00;99114.00;5031586;28;19932;-43
2022/06/04 03:40:45;;;;;;;;;;;;;;;20.08;100.00;99112.06;5029601;28;19924;-44
2022/06/04 03:43:11;;;;;;;;;;;;;;;20.37;100.00;99102.19;5034039;28;19925;-43
2022/06/04 03:45:36;;;;;;;;;;;;;;;20.54;98.42;99100.97;5029648;28;19921;-43
2022/06/04 03:48:01;;;;;;;;;;;;;;;20.69;98.12;99092.06;5031686;28;19921;-43
2022/06/04 03:50:26;;;;;;;;;;;;;;;21.08;94.10;99088.28;5031494;28;19921;-43
2022/06/04 03:52:52;;;;;;;;;;;;;;;21.32;93.17;99090.03;5032847;28;19921;-44
2022/06/04 03:55:17;;;;;;;;;;;;;;;21.22;92.83;99100.34;5028520;28;19960;-43
2022/06/04 03:57:50;;;;;;;;;;;;;;;21.50;92.70;99093.91;5030382;28;19924;-44
2022/06/04 04:00:32;;;;;;;;;;;;;;;21.37;92.94;99095.78;5016561;28;20337;-44
2022/06/04 04:02:59;;;;;;;;;;;;;;;21.43;92.80;99104.97;5027178;28;19920;-44
2022/06/04 04:05:27;;;;;;;;;;;;;;;20.29;99.39;99105.31;5030867;28;19921;-43
2022/06/04 04:07:54;;;;;;;;;;;;;;;20.25;97.91;99093.41;5026605;28;19952;-44
2022/06/04 04:10:19;;;;;;;;;;;;;;;18.93;100.00;99102.28;5027194;28;19925;-43
2022/06/04 04:12:44;;;;;;;;;;;;;;;20.59;100.00;99104.94;5033970;28;19920;-43
2022/06/04 04:15:10;;;;;;;;;;;;;;;20.72;100.00;99114.56;5031181;28;19924;-43
2022/06/04 04:17:37;;;;;;;;;;;;;;;21.25;96.32;99109.78;5029685;28;19923;-43
2022/06/04 04:20:10;;;;;;;;;;;;;;;21.30;95.96;99112.88;5029611;28;19925;-43
2022/06/04 04:22:36;;;;;;;;;;;;;;;21.86;92.82;99115.66;5030933;28;19985;-43
2022/06/04 04:25:01;;;;;;;;;;;;;;;21.58;91.58;99116.94;5033133;28;19921;-43
2022/06/04 04:27:27;;;;;;;;;;;;;;;21.36;92.33;99114.22;5033032;28;20016;-43
2022/06/04 04:29:52;;;;;;;;;;;;;;;20.64;98.59;99121.19;5037745;28;21543;-44
2022/06/04 04:32:17;;;;;;;;;;;;;;;21.37;94.31;99123.72;5031909;28;20533;-43
2022/06/04 04:34:42;;;;;;;;;;;;;;;21.55;95.04;99125.00;5034514;28;19932;-43
2022/06/04 04:37:08;;;;;;;;;;;;;;;21.58;94.30;99127.41;5017570;28;19920;-44
2022/06/04 04:39:33;;;;;;;;;;;;;;;21.53;94.71;99129.56;5033339;28;20019;-43
2022/06/04 04:41:58;;;;;;;;;;;;;;;21.66;94.89;99130.28;5027672;28;20106;-41
2022/06/04 04:44:23;;;;;;;;;;;;;;;21.50;94.15;99119.28;5029418;28;19921;-43
2022/06/04 04:46:50;;;;;;;;;;;;;;;21.54;94.85;99115.47;5027492;28;19921;-44
2022/06/04 04:49:15;;;;;;;;;;;;;;;21.22;96.04;99115.25;5031541;28;19921;-44
2022/06/04 04:51:40;;;;;;;;;;;;;;;21.31;97.44;99114.56;5024986;28;20590;-43
2022/06/04 04:54:05;;;;;;;;;;;;;;;21.61;95.31;99103.59;5028026;28;19935;-44
2022/06/04 04:56:31;;;;;;;;;;;;;;;21.34;95.79;99118.72;5033832;28;19975;-43
2022/06/04 04:58:56;;;;;;;;;;;;;;;21.67;96.56;99116.22;5029943;28;19921;-44
2022/06/04 05:01:25;;;;;;;;;;;;;;;22.09;93.96;99113.88;5033556;28;20378;-44
2022/06/04 05:03:50;;;;;;;;;;;;;;;21.48;95.71;99115.94;5029713;28;19925;-44
2022/06/04 05:06:16;;;;;;;;;;;;;;;21.83;95.37;99131.63;5031140;28;19921;-44
2022/06/04 05:08:42;;;;;;;;;;;;;;;22.12;93.17;99137.25;5025770;28;20000;-43
2022/06/04 05:11:07;;;;;;;;;;;;;;;22.57;92.31;99135.56;5030176;28;20608;-44
2022/06/04 05:13:32;;;;;;;;;;;;;;;21.76;93.40;99140.91;5032588;28;19917;-43
2022/06/04 05:15:58;;;;;;;;;;;;;;;20.39;99.98;99153.44;5034303;28;19929;-44
2022/06/04 05:18:23;;;;;;;;;;;;;;;20.57;100.00;99155.72;5034493;28;19920;-43
2022/06/04 05:20:48;;;;;;;;;;;;;;;20.32;100.00;99157.44;5035795;28;19927;-43
2022/06/04 05:23:13;;;;;;;;;;;;;;;20.54;100.00;99161.97;5029492;28;20409;-44
2022/06/04 05:25:39;;;;;;;;;;;;;;;20.42;100.00;99168.91;5028419;28;19920;-43
2022/06/04 05:28:04;;;;;;;;;;;;;;;19.88;100.00;99174.38;5032410;28;19943;-44
2022/06/04 05:30:29;;;;;;;;;;;;;;;20.01;100.00;99179.63;5034289;28;19974;-43
2022/06/04 05:32:55;;;;;;;;;;;;;;;20.08;100.00;99185.28;5030103;28;19947;-43
2022/06/04 05:35:20;;;;;;;;;;;;;;;19.54;100.00;99188.81;5031817;28;19928;-43
2022/06/04 05:37:45;;;;;;;;;;;;;;;19.09;100.00;99196.97;5036670;28;19964;-43
2022/06/04 05:40:10;;;;;;;;;;;;;;;20.52;100.00;99191.81;5033035;28;20051;-43
2022/06/04 05:42:35;;;;;;;;;;;;;;;20.52;100.00;99205.72;5014996;28;20001;-43
2022/06/04 05:45:01;;;;;;;;;;;;;;;21.75;100.00;99196.06;5034993;28;19928;-44
2022/06/04 05:47:26;;;;;;;;;;;;;;;20.80;100.00;99204.66;5036245;28;19953;-43
2022/06/04 05:49:52;;;;;;;;;;;;;;;21.69;100.00;99198.22;5031515;28;20005;-43
2022/06/04 05:52:17;;;;;;;;;;;;;;;21.15;100.00;99198.66;5032760;28;19921;-44
2022/06/04 05:54:42;;;;;;;;;;;;;;;21.78;99.96;99199.31;5031814;28;19924;-43
2022/06/04 05:57:07;;;;;;;;;;;;;;;20.19;100.00;99208.91;5029218;28;19921;-43
2022/06/04 05:59:33;;;;;;;;;;;;;;;21.56;100.00;99204.47;5026426;28;20746;-43
2022/06/04 06:01:58;;;;;;;;;;;;;;;21.77;100.00;99208.09;5026572;28;20283;-44
2022/06/04 06:04:26;;;;;;;;;;;;;;;22.62;97.69;99210.34;5030888;28;21423;-43
2022/06/04 06:06:51;;;;;;;;;;;;;;;21.36;100.00;99219.00;5037598;28;19928;-44
2022/06/04 06:09:18;;;;;;;;;;;;;;;21.31;100.00;99214.94;5026809;28;19975;-43
2022/06/04 06:11:43;;;;;;;;;;;;;;;20.75;100.00;99222.44;5025540;28;19965;-43
2022/06/04 06:14:09;;;;;;;;;;;;;;;21.59;100.00;99218.19;5025522;28;19917;-43
2022/06/04 06:16:35;;;;;;;;;;;;;;;22.73;98.65;99214.78;5028024;28;20016;-44
2022/06/04 06:19:00;;;;;;;;;;;;;;;21.22;100.00;99215.59;5029178;28;19963;-43
2022/06/04 06:21:27;;;;;;;;;;;;;;;20.80;100.00;99225.59;5028898;28;19985;-44
2022/06/04 06:23:52;;;;;;;;;;;;;;;20.57;100.00;99226.38;5025702;28;19917;-43
2022/06/04 06:26:21;;;;;;;;;;;;;;;20.31;100.00;99217.69;5029968;28;19937;-43
2022/06/04 06:28:46;;;;;;;;;;;;;;;21.27;100.00;99213.47;5029700;28;19921;-43
2022/06/04 06:31:12;;;;;;;;;;;;;;;21.92;100.00;99203.50;5030474;28;19921;-44
2022/06/04 06:33:38;;;;;;;;;;;;;;;21.91;100.00;99207.06;5025418;28;19920;-43
2022/06/04 06:36:04;;;;;;;;;;;;;;;22.18;100.00;99205.91;5032087;28;19931;-43
2022/06/04 06:38:30;;;;;;;;;;;;;;;20.76;100.00;99218.91;5030735;28;19940;-43
2022/06/04 06:40:56;;;;;;;;;;;;;;;22.73;100.00;99212.97;5028396;28;20661;-43
2022/06/04 06:43:22;;;;;;;;;;;;;;;22.11;100.00;99214.25;5024875;28;19920;-43
2022/06/04 06:45:47;;;;;;;;;;;;;;;22.93;100.00;99219.28;5030470;28;19919;-44
2022/06/04 06:48:12;;;;;;;;;;;;;;;22.98;99.59;99216.28;5027114;28;20378;-43
2022/06/04 06:50:38;;;;;;;;;;;;;;;23.05;99.08;99220.09;5029380;28;20382;-44
2022/06/04 06:53:03;;;;;;;;;;;;;;;22.60;98.97;99219.31;5029747;28;19932;-43
2022/06/04 06:55:28;;;;;;;;;;;;;;;22.32;100.00;99227.53;5010501;28;19975;-43
2022/06/04 06:57:54;;;;;;;;;;;;;;;22.32;100.00;99221.47;5026629;28;19920;-44
2022/06/04 07:00:19;;;;;;;;;;;;;;;22.84;100.00;99227.88;5027179;28;19921;-43
2022/06/04 07:02:44;;;;;;;;;;;;;;;23.49;100.00;99223.56;5027304;28;19921;-43
2022/06/04 07:05:10;;;;;;;;;;;;;;;24.06;96.28;99226.75;5014413;28;19967;-43
2022/06/04 07:07:35;;;;;;;;;;;;;;;24.51;93.84;99215.91;5036075;28;19921;-43
2022/06/04 07:10:00;;;;;;;;;;;;;;;24.08;95.48;99224.81;5029198;28;19921;-43
2022/06/04 07:12:25;;;;;;;;;;;;;;;24.76;92.97;99219.88;5030723;28;19921;-44
2022/06/04 07:14:51;;;;;;;;;;;;;;;23.58;96.01;99225.44;5030889;28;19978;-43
2022/06/04 07:17:16;;;;;;;;;;;;;;;22.70;100.00;99220.28;5029088;28;19971;-43
2022/06/04 07:19:41;;;;;;;;;;;;;;;23.57;100.00;99215.03;5012498;28;19921;-43
2022/06/04 07:22:07;;;;;;;;;;;;;;;23.85;95.36;99218.03;5025895;28;19949;-43
2022/06/04 07:24:32;;;;;;;;;;;;;;;24.25;94.29;99214.69;5028851;28;19944;-43
2022/06/04 07:26:57;;;;;;;;;;;;;;;23.99;95.62;99209.81;5030045;28;20721;-43
2022/06/04 07:29:23;;;;;;;;;;;;;;;23.77;97.31;99211.63;5027742;28;19928;-43
2022/06/04 07:31:48;;;;;;;;;;;;;;;23.40;95.28;99219.06;5035866;28;19921;-43
2022/06/04 07:34:14;;;;;;;;;;;;;;;22.80;100.00;99226.44;5037153;28;20301;-44
2022/06/04 07:36:43;;;;;;;;;;;;;;;24.34;96.14;99213.88;5014131;28;20027;-43
2022/06/04 07:39:09;;;;;;;;;;;;;;;25.24;90.28;99208.63;5031244;28;19973;-43
2022/06/04 07:41:42;;;;;;;;;;;;;;;25.14;90.81;99212.22;5033103;28;19920;-43
2022/06/04 07:44:08;;;;;;;;;;;;;;;25.42;90.07;99219.31;5033487;28;19979;-44
2022/06/04 07:46:33;;;;;;;;;;;;;;;25.76;89.55;99218.06;5033879;28;20039;-43
2022/06/04 07:49:03;;;;;;;;;;;;;;;24.65;93.00;99234.97;5030267;28;19929;-43
2022/06/04 07:51:29;;;;;;;;;;;;;;;24.97;90.74;99232.97;5030227;28;20531;-43
2022/06/04 07:53:54;;;;;;;;;;;;;;;25.80;91.58;99225.56;5032600;28;19921;-43
2022/06/04 07:56:19;;;;;;;;;;;;;;;25.55;88.24;99226.13;5028867;28;19931;-43
2022/06/04 07:58:45;;;;;;;;;;;;;;;25.52;91.38;99226.41;5034669;28;20869;-44
2022/06/04 08:01:14;;;;;;;;;;;;;;;25.34;89.35;99234.16;5031807;28;19930;-43
2022/06/04 08:03:40;;;;;;;;;;;;;;;25.88;89.23;99238.06;5032270;28;20014;-44
2022/06/04 08:06:05;;;;;;;;;;;;;;;26.78;83.45;99235.88;5031034;28;20344;-44
2022/06/04 08:08:32;;;;;;;;;;;;;;;25.82;86.85;99236.81;5014334;28;20002;-44
2022/06/04 08:10:58;;;;;;;;;;;;;;;24.23;94.56;99245.56;5030204;28;19945;-44
2022/06/04 08:13:26;;;;;;;;;;;;;;;25.28;92.95;99246.09;5031599;28;20122;-44
2022/06/04 08:15:57;;;;;;;;;;;;;;;24.92;88.07;99250.97;5029413;28;19929;-44
2022/06/04 08:18:22;;;;;;;;;;;;;;;25.30;87.93;99241.53;5033396;28;19921;-44
2022/06/04 08:20:48;;;;;;;;;;;;;;;26.13;86.22;99241.91;5030441;28;20487;-44
2022/06/04 08:23:13;;;;;;;;;;;;;;;25.52;85.66;99247.50;5032967;28;20597;-44
2022/06/04 08:25:42;;;;;;;;;;;;;;;25.08;88.86;99249.63;5032748;28;19924;-44
2022/06/04 08:28:07;;;;;;;;;;;;;;;25.46;87.37;99260.28;5033548;28;20024;-44
2022/06/04 08:30:33;;;;;;;;;;;;;;;26.29;87.85;99251.88;5031892;28;19925;-43
2022/06/04 08:32:58;;;;;;;;;;;;;;;27.87;80.94;99241.94;5029741;28;20035;-44
2022/06/04 08:35:23;;;;;;;;;;;;;;;26.72;79.61;99252.31;5031392;28;19952;-44
2022/06/04 08:37:49;;;;;;;;;;;;;;;26.43;86.14;99243.47;5029494;28;19975;-44
2022/06/04 08:40:32;;;;;;;;;;;;;;;27.91;77.50;99243.28;5030315;28;20409;-44
2022/06/04 08:42:58;;;;;;;;;;;;;;;26.46;83.93;99252.94;5029431;28;20424;-44
2022/06/04 08:45:23;;;;;;;;;;;;;;;26.03;84.27;99267.50;5029855;28;19917;-44
2022/06/04 08:47:48;;;;;;;;;;;;;;;25.24;86.55;99268.41;5016644;28;19928;-44
2022/06/04 08:50:21;;;;;;;;;;;;;;;25.07;90.31;99271.72;5014399;28;19928;-43
2022/06/04 08:52:56;;;;;;;;;;;;;;;26.25;86.60;99256.63;5028842;28;20383;-44
2022/06/04 08:58:11;;;;;;;;;;;;;;;26.55;85.65;99254.75;5037056;28;19924;-43
2022/06/04 09:00:50;;;;;;;;;;;;;;;26.17;84.21;99259.13;5031514;28;19927;-44
2022/06/04 09:03:16;;;;;;;;;;;;;;;27.85;79.74;99251.84;5007942;28;20086;-44
2022/06/04 09:05:50;;;;;;;;;;;;;;;26.66;82.72;99262.47;5012274;28;19961;-44
2022/06/04 09:08:18;;;;;;;;;;;;;;;27.01;84.64;99271.47;5032411;28;19921;-44
2022/06/04 09:10:48;;;;;;;;;;;;;;;27.58;80.69;99263.34;5030054;28;20374;-43
2022/06/04 09:13:19;;;;;;;;;;;;;;;26.56;85.20;99274.88;5012379;28;20578;-43
2022/06/04 09:15:45;;;;;;;;;;;;;;;25.92;81.83;99275.56;5026726;28;19936;-44
2022/06/04 09:18:16;;;;;;;;;;;;;;;26.69;84.28;99270.09;5015048;28;19974;-43
2022/06/04 09:20:45;;;;;;;;;;;;;;;25.72;84.99;99291.38;5031839;28;19928;-44
2022/06/04 09:23:19;;;;;;;;;;;;;;;26.64;85.35;99284.72;5031587;28;19947;-44
2022/06/04 09:25:46;;;;;;;;;;;;;;;27.00;82.08;99283.03;5033078;28;19975;-44
2022/06/04 09:28:11;;;;;;;;;;;;;;;26.69;82.11;99291.25;5031279;28;19995;-43
2022/06/04 09:30:41;;;;;;;;;;;;;;;27.08;83.03;99293.69;5031794;28;20544;-44
2022/06/04 09:33:09;;;;;;;;;;;;;;;25.95;80.39;99304.31;5010031;28;19921;-43
2022/06/04 09:35:38;;;;;;;;;;;;;;;27.55;78.22;99287.44;5029429;28;19921;-44
2022/06/04 09:38:03;;;;;;;;;;;;;;;27.40;78.56;99292.41;5015534;28;19925;-44
2022/06/04 09:40:29;;;;;;;;;;;;;;;26.69;83.59;99288.59;5031145;28;19927;-44
2022/06/04 09:43:10;;;;;;;;;;;;;;;26.03;82.94;99302.63;5028171;28;19921;-44
2022/06/04 09:45:35;;;;;;;;;;;;;;;26.20;79.34;99295.78;5012402;28;20449;-43
2022/06/04 09:48:01;;;;;;;;;;;;;;;26.63;80.65;99297.09;5030336;28;20031;-43
2022/06/04 09:50:27;;;;;;;;;;;;;;;26.55;80.34;99304.94;5030740;28;19924;-43
2022/06/04 09:53:03;;;;;;;;;;;;;;;25.92;82.02;99296.69;5009845;28;19924;-44
2022/06/04 09:55:28;;;;;;;;;;;;;;;26.32;83.91;99295.63;5030492;28;20382;-44
2022/06/04 09:57:55;;;;;;;;;;;;;;;25.27;82.10;99307.69;5010396;28;19971;-44
2022/06/04 10:00:22;;;;;;;;;;;;;;;25.71;82.35;99310.81;5027664;28;19950;-46
2022/06/04 10:03:01;;;;;;;;;;;;;;;26.29;81.85;99300.22;5019440;28;19921;-44
2022/06/04 10:05:27;;;;;;;;;;;;;;;25.49;83.25;99303.97;5035405;28;20404;-44
2022/06/04 10:07:53;;;;;;;;;;;;;;;26.04;80.62;99301.66;5014217;28;19920;-43
2022/06/04 10:10:36;;;;;;;;;;;;;;;28.26;76.22;99291.84;5008804;28;19928;-44
2022/06/04 10:15:54;;;;;;;;;;;;;;;27.46;74.62;99289.19;5015981;28;19931;-44
2022/06/04 10:18:24;;;;;;;;;;;;;;;25.91;83.45;99295.00;5014895;28;20351;-43
2022/06/04 10:20:52;;;;;;;;;;;;;;;27.48;79.87;99289.88;5037658;28;19967;-44
2022/06/04 10:23:17;;;;;;;;;;;;;;;26.99;77.84;99294.59;5031040;28;19925;-44
2022/06/04 10:25:55;;;;;;;;;;;;;;;26.54;80.51;99297.94;5035227;28;19982;-44
2022/06/04 10:28:31;;;;;;;;;;;;;;;27.57;78.80;99289.94;5027558;28;20018;-44
2022/06/04 10:31:05;;;;;;;;;;;;;;;26.94;80.53;99299.50;5016815;28;20344;-44
2022/06/04 10:33:36;;;;;;;;;;;;;;;27.55;77.86;99287.44;5032006;28;19921;-44
2022/06/04 10:36:21;;;;;;;;;;;;;;;27.98;73.82;99287.66;5010240;28;20255;-44
2022/06/04 10:39:02;;;;;;;;;;;;;;;29.03;71.66;99278.66;5029272;28;19921;-44
2022/06/04 10:41:27;;;;;;;;;;;;;;;27.36;77.39;99292.88;5018081;28;19923;-44
2022/06/04 10:43:55;;;;;;;;;;;;;;;26.92;73.17;99288.22;5033973;28;19920;-44
2022/06/04 10:46:25;;;;;;;;;;;;;;;28.18;76.88;99286.50;5034128;28;19971;-44
2022/06/04 10:48:53;;;;;;;;;;;;;;;27.87;72.77;99296.66;5021927;28;19921;-44
2022/06/04 10:51:27;;;;;;;;;;;;;;;27.19;69.96;99286.56;5035040;28;20347;-44
2022/06/04 10:53:52;;;;;;;;;;;;;;;29.01;69.07;99285.13;5015707;28;19920;-44
2022/06/04 10:56:18;;;;;;;;;;;;;;;28.73;70.42;99280.88;5033949;28;19943;-44
2022/06/04 10:58:48;;;;;;;;;;;;;;;29.39;64.72;99283.75;5022132;28;19928;-44
2022/06/04 11:01:14;;;;;;;;;;;;;;;28.89;67.96;99284.59;5010961;28;20019;-44
2022/06/04 11:03:48;;;;;;;;;;;;;;;29.05;65.77;99295.25;5025214;28;19967;-44
2022/06/04 11:06:18;;;;;;;;;;;;;;;28.77;68.83;99292.00;5027985;28;20717;-44
2022/06/04 11:08:48;;;;;;;;;;;;;;;29.40;66.63;99294.22;5014244;28;19932;-44
2022/06/04 11:11:16;;;;;;;;;;;;;;;30.36;64.95;99282.16;5024234;28;20023;-44
2022/06/04 11:13:42;;;;;;;;;;;;;;;29.08;67.04;99292.31;5016356;28;19925;-44
2022/06/04 11:16:14;;;;;;;;;;;;;;;27.90;68.71;99299.84;5033107;28;20363;-44
2022/06/04 11:18:42;;;;;;;;;;;;;;;28.35;68.76;99301.53;5034324;28;19947;-44
2022/06/04 11:21:10;;;;;;;;;;;;;;;29.60;65.09;99292.09;5013675;28;19923;-43
2022/06/04 11:23:41;;;;;;;;;;;;;;;28.97;64.77;99295.22;5031374;28;20013;-44
2022/06/04 11:26:12;;;;;;;;;;;;;;;29.05;60.05;99303.19;5033792;28;19941;-43
2022/06/04 11:28:37;;;;;;;;;;;;;;;30.17;52.84;99301.88;5035141;28;20554;-44
2022/06/04 11:31:15;;;;;;;;;;;;;;;29.48;57.10;99309.31;5033232;28;19959;-43
2022/06/04 11:33:43;;;;;;;;;;;;;;;29.21;57.03;99313.06;5034195;28;19987;-43
2022/06/04 11:36:17;;;;;;;;;;;;;;;30.09;53.09;99301.91;5034817;28;20558;-44
2022/06/04 11:39:02;;;;;;;;;;;;;;;28.61;56.53;99303.34;5028790;28;19921;-43
2022/06/04 11:41:46;;;;;;;;;;;;;;;29.48;55.06;99301.34;5019392;28;19920;-44
2022/06/04 11:44:35;;;;;;;;;;;;;;;28.93;58.97;99299.19;5031073;28;19959;-44
2022/06/04 11:47:18;;;;;;;;;;;;;;;28.39;54.31;99295.91;5012982;28;19927;-43
2022/06/04 11:49:56;;;;;;;;;;;;;;;28.30;57.42;99302.94;5032127;28;19974;-44
2022/06/04 11:52:47;;;;;;;;;;;;;;;29.59;49.63;99301.03;5034887;28;19921;-44
2022/06/04 11:55:16;;;;;;;;;;;;;;;30.10;52.82;99297.44;5025758;28;19979;-44
2022/06/04 11:57:50;;;;;;;;;;;;;;;30.57;50.95;99292.22;5029450;28;20008;-44
2022/06/04 12:00:18;;;;;;;;;;;;;;;30.82;48.20;99292.97;5018494;28;19966;-44
2022/06/04 12:02:43;;;;;;;;;;;;;;;29.38;52.84;99296.22;5028605;28;19929;-44
2022/06/04 12:05:17;;;;;;;;;;;;;;;30.16;49.25;99291.47;5031841;28;19921;-43
2022/06/04 12:07:43;;;;;;;;;;;;;;;28.62;56.25;99290.91;5013860;28;19948;-44
2022/06/04 12:10:28;;;;;;;;;;;;;;;30.74;55.00;99290.31;5013212;28;19921;-44
2022/06/04 12:13:02;;;;;;;;;;;;;;;30.18;51.58;99292.13;5036571;28;19920;-44
2022/06/04 12:15:34;;;;;;;;;;;;;;;28.23;55.57;99297.44;5015666;28;19921;-43
2022/06/04 12:18:00;;;;;;;;;;;;;;;29.47;54.35;99285.59;5013018;28;20413;-44
2022/06/04 12:26:22;;;;;;;;;;;;;;;29.37;56.06;99291.06;5033960;28;20148;-43
2022/06/04 12:28:48;;;;;;;;;;;;;;;29.73;55.27;99281.00;5028398;28;19921;-44
2022/06/04 12:31:14;;;;;;;;;;;;;;;29.17;52.44;99277.25;5032274;28;19923;-44
2022/06/04 12:33:41;;;;;;;;;;;;;;;29.55;52.18;99282.97;4988367;28;19975;-43
2022/06/04 12:36:10;;;;;;;;;;;;;;;30.76;48.85;99275.03;5030923;28;19925;-43
2022/06/04 12:38:37;;;;;;;;;;;;;;;32.49;47.89;99270.13;5013021;28;19959;-44
2022/06/04 12:41:15;;;;;;;;;;;;;;;30.03;50.96;99279.50;5008474;28;19956;-43
2022/06/04 12:43:44;;;;;;;;;;;;;;;31.63;48.61;99280.22;5008365;28;19917;-44
2022/06/04 12:46:16;;;;;;;;;;;;;;;32.21;47.18;99282.44;5028806;28;20617;-44
2022/06/04 12:48:50;;;;;;;;;;;;;;;30.94;47.77;99277.47;5030550;28;19925;-44
2022/06/04 12:51:26;;;;;;;;;;;;;;;29.70;51.64;99288.50;5026848;28;19917;-44
2022/06/04 12:53:55;;;;;;;;;;;;;;;30.72;47.80;99281.69;5008561;28;20434;-43
2022/06/04 12:56:25;;;;;;;;;;;;;;;30.62;46.60;99281.06;5033457;28;19932;-44
2022/06/04 12:58:52;;;;;;;;;;;;;;;29.75;49.38;99289.63;5014276;28;19933;-43
2022/06/04 13:01:20;;;;;;;;;;;;;;;32.46;45.55;99278.50;5034276;28;20043;-44
2022/06/04 13:03:48;;;;;;;;;;;;;;;30.29;48.21;99286.50;5033100;28;19995;-44
2022/06/04 13:06:13;;;;;;;;;;;;;;;30.35;48.27;99290.28;5033650;28;19937;-44
2022/06/04 13:08:38;;;;;;;;;;;;;;;29.38;47.53;99292.72;5031094;28;19932;-44